createdAt,value
2019-03-18T00:00:38.661Z,97238.42
2019-03-18T00:01:42.285Z,97238.42
2019-03-18T00:02:45.924Z,97236.84
2019-03-18T00:03:49.670Z,97235.50
2019-03-18T00:04:53.307Z,97235.19
2019-03-18T00:05:56.990Z,97239.75
2019-03-18T00:07:00.662Z,97239.75
2019-03-18T00:08:04.299Z,97235.98
2019-03-18T00:09:08.038Z,97240.27
2019-03-18T00:10:11.785Z,97236.59
2019-03-18T00:11:15.453Z,97236.59
2019-03-18T00:12:19.501Z,97246.90
2019-03-18T00:13:23.079Z,97232.16
2019-03-18T00:14:26.764Z,97235.63
2019-03-18T00:15:30.399Z,97235.63
2019-03-18T00:16:34.064Z,97235.87
2019-03-18T00:17:37.709Z,97235.39
2019-03-18T00:18:41.342Z,97235.39
2019-03-18T00:19:44.976Z,97234.84
2019-03-18T00:20:48.532Z,97234.84
2019-03-18T00:21:52.202Z,97238.97
2019-03-18T00:22:55.897Z,97238.97
2019-03-18T00:23:59.535Z,97235.84
2019-03-18T00:25:03.663Z,97235.84
2019-03-18T00:26:07.372Z,97239.00
2019-03-18T00:27:11.036Z,97242.47
2019-03-18T00:28:14.613Z,97237.18
2019-03-18T00:29:18.247Z,97242.30
2019-03-18T00:30:21.986Z,97247.97
2019-03-18T00:31:25.618Z,97232.92
2019-03-18T00:32:29.371Z,97239.86
2019-03-18T00:33:33.015Z,97239.86
2019-03-18T00:34:36.643Z,97234.50
2019-03-18T00:35:40.277Z,97245.60
2019-03-18T00:36:44.010Z,97245.60
2019-03-18T00:37:47.690Z,97240.82
2019-03-18T00:38:51.368Z,97239.79
2019-03-18T00:39:54.992Z,97239.31
2019-03-18T00:40:58.629Z,97234.16
2019-03-18T00:42:02.257Z,97230.93
2019-03-18T00:43:05.932Z,97232.78
2019-03-18T00:44:09.554Z,97236.55
2019-03-18T00:45:15.239Z,97235.48
2019-03-18T00:46:18.546Z,97227.75
2019-03-18T00:47:22.164Z,97228.78
2019-03-18T00:48:25.830Z,97239.47
2019-03-18T00:49:29.391Z,97239.47
2019-03-18T00:50:32.953Z,97225.53
2019-03-18T00:51:36.583Z,97233.56
2019-03-18T00:52:40.910Z,97234.91
2019-03-18T00:53:44.587Z,97222.23
2019-03-18T00:54:48.202Z,97222.23
2019-03-18T00:55:51.965Z,97234.77
2019-03-18T00:56:55.643Z,97231.05
2019-03-18T00:57:59.279Z,97225.70
2019-03-18T00:59:03.338Z,97226.42
2019-03-18T01:00:15.910Z,97223.74
2019-03-18T01:01:19.536Z,97224.83
2019-03-18T01:02:23.169Z,97222.49
2019-03-18T01:03:26.796Z,97222.49
2019-03-18T01:04:30.460Z,97226.03
2019-03-18T01:05:34.091Z,97224.45
2019-03-18T01:06:37.726Z,97226.03
2019-03-18T01:07:41.681Z,97225.58
2019-03-18T01:08:45.577Z,97226.84
2019-03-18T01:09:49.235Z,97216.74
2019-03-18T01:10:52.864Z,97223.05
2019-03-18T01:11:56.496Z,97221.16
2019-03-18T01:13:00.127Z,97220.71
2019-03-18T01:14:04.083Z,97223.14
2019-03-18T01:15:09.519Z,97223.14
2019-03-18T01:16:13.149Z,97222.42
2019-03-18T01:17:16.784Z,97221.08
2019-03-18T01:18:20.419Z,97217.63
2019-03-18T01:19:24.039Z,97220.95
2019-03-18T01:20:27.700Z,97221.02
2019-03-18T01:21:31.327Z,97215.80
2019-03-18T01:22:34.958Z,97222.98
2019-03-18T01:23:38.594Z,97215.80
2019-03-18T01:24:42.222Z,97220.95
2019-03-18T01:25:45.859Z,97219.82
2019-03-18T01:26:49.495Z,97217.38
2019-03-18T01:27:53.131Z,97219.20
2019-03-18T01:28:56.856Z,97221.88
2019-03-18T01:30:00.483Z,97221.40
2019-03-18T01:31:04.152Z,97224.08
2019-03-18T01:32:08.163Z,97214.02
2019-03-18T01:33:11.793Z,97214.02
2019-03-18T01:34:15.793Z,97213.85
2019-03-18T01:35:19.429Z,97222.92
2019-03-18T01:36:23.181Z,97224.56
2019-03-18T01:37:26.801Z,97222.66
2019-03-18T01:38:30.362Z,97223.70
2019-03-18T01:39:34.092Z,97226.13
2019-03-18T01:40:37.724Z,97220.45
2019-03-18T01:41:41.382Z,97223.61
2019-03-18T01:42:45.144Z,97221.42
2019-03-18T01:43:48.777Z,97218.32
2019-03-18T01:44:52.410Z,97218.32
2019-03-18T01:45:56.378Z,97223.52
2019-03-18T01:46:59.982Z,97219.50
2019-03-18T01:48:03.609Z,97219.75
2019-03-18T01:49:07.238Z,97215.73
2019-03-18T01:50:14.940Z,97216.53
2019-03-18T01:51:18.581Z,97213.84
2019-03-18T01:52:22.235Z,97217.08
2019-03-18T01:53:25.870Z,97215.65
2019-03-18T01:54:29.499Z,97212.67
2019-03-18T01:55:33.128Z,97215.80
2019-03-18T01:56:36.687Z,97214.46
2019-03-18T01:57:40.359Z,97214.95
2019-03-18T01:58:44.000Z,97215.41
2019-03-18T01:59:47.628Z,97211.63
2019-03-18T02:00:51.314Z,97206.98
2019-03-18T02:01:54.947Z,97211.63
2019-03-18T02:02:58.607Z,97209.27
2019-03-18T02:04:02.237Z,97216.83
2019-03-18T02:05:07.188Z,97213.58
2019-03-18T02:06:10.816Z,97215.25
2019-03-18T02:07:14.443Z,97210.59
2019-03-18T02:08:18.083Z,97204.40
2019-03-18T02:09:22.044Z,97206.53
2019-03-18T02:10:25.670Z,97212.09
2019-03-18T02:11:29.299Z,97212.18
2019-03-18T02:12:32.938Z,97210.05
2019-03-18T02:13:36.600Z,97207.13
2019-03-18T02:14:40.229Z,97208.95
2019-03-18T02:15:52.598Z,97201.30
2019-03-18T02:16:49.317Z,97203.76
2019-03-18T02:17:53.321Z,97207.82
2019-03-18T02:18:57.218Z,97206.55
2019-03-18T02:20:00.847Z,97206.53
2019-03-18T02:21:04.483Z,97212.19
2019-03-18T02:22:08.136Z,97209.06
2019-03-18T02:23:11.768Z,97207.97
2019-03-18T02:24:15.432Z,97217.69
2019-03-18T02:25:19.071Z,97207.22
2019-03-18T02:26:22.630Z,97216.88
2019-03-18T02:27:26.589Z,97222.17
2019-03-18T02:28:30.161Z,97218.95
2019-03-18T02:29:33.818Z,97216.49
2019-03-18T02:30:37.454Z,97219.55
2019-03-18T02:31:41.092Z,97220.64
2019-03-18T02:32:44.725Z,97219.55
2019-03-18T02:33:48.351Z,97223.02
2019-03-18T02:34:52.015Z,97220.34
2019-03-18T02:35:55.673Z,97230.25
2019-03-18T02:36:59.304Z,97232.45
2019-03-18T02:38:02.933Z,97227.72
2019-03-18T02:39:07.071Z,97227.96
2019-03-18T02:40:11.621Z,97223.65
2019-03-18T02:41:15.245Z,97223.32
2019-03-18T02:42:18.899Z,97216.72
2019-03-18T02:43:22.518Z,97225.67
2019-03-18T02:44:26.155Z,97221.56
2019-03-18T02:45:29.805Z,97225.95
2019-03-18T02:46:33.367Z,97226.25
2019-03-18T02:47:37.004Z,97230.26
2019-03-18T02:48:41.069Z,97229.85
2019-03-18T02:49:44.700Z,97230.94
2019-03-18T02:50:48.441Z,97230.48
2019-03-18T02:51:53.255Z,97236.42
2019-03-18T02:52:56.979Z,97239.59
2019-03-18T02:54:00.612Z,97234.70
2019-03-18T02:55:05.344Z,97234.16
2019-03-18T02:56:09.007Z,97237.87
2019-03-18T02:57:12.642Z,97232.52
2019-03-18T02:58:16.271Z,97235.74
2019-03-18T02:59:19.989Z,97239.45
2019-03-18T03:00:23.650Z,97235.91
2019-03-18T03:01:27.378Z,97241.49
2019-03-18T03:02:30.933Z,97247.93
2019-03-18T03:03:36.891Z,97250.39
2019-03-18T03:04:39.924Z,97253.41
2019-03-18T03:05:43.553Z,97250.78
2019-03-18T03:06:47.198Z,97254.11
2019-03-18T03:07:50.821Z,97251.65
2019-03-18T03:08:54.868Z,97250.02
2019-03-18T03:09:58.500Z,97253.61
2019-03-18T03:11:02.147Z,97256.78
2019-03-18T03:12:05.792Z,97251.89
2019-03-18T03:13:09.424Z,97251.11
2019-03-18T03:14:13.462Z,97248.44
2019-03-18T03:15:17.100Z,97250.52
2019-03-18T03:16:27.106Z,97252.58
2019-03-18T03:17:26.113Z,97250.95
2019-03-18T03:18:29.758Z,97249.73
2019-03-18T03:19:33.393Z,97255.16
2019-03-18T03:20:37.037Z,97255.03
2019-03-18T03:21:40.663Z,97261.34
2019-03-18T03:22:44.294Z,97260.97
2019-03-18T03:23:47.933Z,97253.50
2019-03-18T03:24:51.566Z,97260.59
2019-03-18T03:25:55.301Z,97263.17
2019-03-18T03:26:59.364Z,97262.55
2019-03-18T03:28:02.921Z,97268.92
2019-03-18T03:29:06.547Z,97257.58
2019-03-18T03:30:14.474Z,97263.22
2019-03-18T03:31:18.515Z,97258.13
2019-03-18T03:32:22.134Z,97260.50
2019-03-18T03:33:25.721Z,97262.30
2019-03-18T03:34:29.348Z,97264.13
2019-03-18T03:35:32.988Z,97270.56
2019-03-18T03:36:36.620Z,97263.38
2019-03-18T03:37:40.333Z,97264.72
2019-03-18T03:38:44.146Z,97270.94
2019-03-18T03:39:47.782Z,97271.52
2019-03-18T03:40:51.412Z,97278.53
2019-03-18T03:41:55.051Z,97281.50
2019-03-18T03:42:58.685Z,97285.01
2019-03-18T03:44:02.407Z,97284.76
2019-03-18T03:45:07.960Z,97289.02
2019-03-18T03:46:11.657Z,97289.88
2019-03-18T03:47:15.274Z,97289.34
2019-03-18T03:48:18.829Z,97289.88
2019-03-18T03:49:22.477Z,97285.67
2019-03-18T03:50:26.104Z,97281.13
2019-03-18T03:51:29.744Z,97295.77
2019-03-18T03:52:33.373Z,97293.89
2019-03-18T03:53:37.003Z,97286.34
2019-03-18T03:54:40.660Z,97297.94
2019-03-18T03:55:44.493Z,97288.42
2019-03-18T03:56:48.219Z,97295.14
2019-03-18T03:57:52.054Z,97297.89
2019-03-18T03:58:56.065Z,97295.34
2019-03-18T04:00:00.477Z,97293.25
2019-03-18T04:01:04.259Z,97299.09
2019-03-18T04:02:07.924Z,97296.72
2019-03-18T04:03:11.556Z,97294.38
2019-03-18T04:04:15.521Z,97290.66
2019-03-18T04:05:19.189Z,97291.20
2019-03-18T04:06:23.050Z,97290.70
2019-03-18T04:07:27.031Z,97294.61
2019-03-18T04:08:30.678Z,97288.52
2019-03-18T04:09:34.289Z,97295.45
2019-03-18T04:10:37.981Z,97302.55
2019-03-18T04:11:41.603Z,97299.38
2019-03-18T04:12:45.338Z,97300.78
2019-03-18T04:13:49.292Z,97304.79
2019-03-18T04:14:53.301Z,97305.88
2019-03-18T04:15:57.333Z,97302.73
2019-03-18T04:17:02.437Z,97302.73
2019-03-18T04:18:06.331Z,97300.53
2019-03-18T04:19:09.959Z,97303.20
2019-03-18T04:20:17.700Z,97297.94
2019-03-18T04:21:21.355Z,97302.53
2019-03-18T04:22:24.982Z,97306.72
2019-03-18T04:23:28.622Z,97302.30
2019-03-18T04:24:32.266Z,97304.56
2019-03-18T04:25:35.823Z,97305.86
2019-03-18T04:26:39.887Z,97305.81
2019-03-18T04:27:43.545Z,97308.78
2019-03-18T04:28:53.624Z,97309.57
2019-03-18T04:29:57.189Z,97314.13
2019-03-18T04:31:02.475Z,97314.12
2019-03-18T04:32:06.166Z,97311.77
2019-03-18T04:33:11.355Z,97311.01
2019-03-18T04:34:15.105Z,97317.44
2019-03-18T04:35:18.745Z,97313.53
2019-03-18T04:36:22.395Z,97314.78
2019-03-18T04:37:26.069Z,97321.44
2019-03-18T04:38:29.743Z,97316.63
2019-03-18T04:39:33.411Z,97322.52
2019-03-18T04:40:50.357Z,97324.95
2019-03-18T04:41:53.990Z,97322.69
2019-03-18T04:43:00.300Z,97322.83
2019-03-18T04:44:04.239Z,97326.28
2019-03-18T04:45:08.876Z,97327.70
2019-03-18T04:46:12.511Z,97322.94
2019-03-18T04:47:16.002Z,97327.19
2019-03-18T04:48:20.063Z,97327.78
2019-03-18T04:49:23.700Z,97328.93
2019-03-18T04:50:27.401Z,97320.44
2019-03-18T04:51:31.046Z,97325.27
2019-03-18T04:52:36.709Z,97329.83
2019-03-18T04:53:40.381Z,97329.09
2019-03-18T04:54:44.190Z,97328.14
2019-03-18T04:55:49.231Z,97328.70
2019-03-18T04:56:52.836Z,97330.69
2019-03-18T04:57:57.502Z,97326.77
2019-03-18T04:59:01.143Z,97328.50
2019-03-18T05:00:07.695Z,97329.53
2019-03-18T05:01:11.337Z,97329.64
2019-03-18T05:02:16.782Z,97335.12
2019-03-18T05:03:20.402Z,97333.32
2019-03-18T05:04:24.012Z,97338.83
2019-03-18T05:05:27.650Z,97337.45
2019-03-18T05:06:31.282Z,97340.11
2019-03-18T05:07:35.002Z,97339.09
2019-03-18T05:08:38.632Z,97337.38
2019-03-18T05:09:42.238Z,97344.14
2019-03-18T05:10:45.865Z,97339.34
2019-03-18T05:11:49.427Z,97339.61
2019-03-18T05:12:53.070Z,97345.52
2019-03-18T05:13:56.833Z,97346.61
2019-03-18T05:15:00.541Z,97349.86
2019-03-18T05:16:07.585Z,97349.84
2019-03-18T05:17:25.865Z,97348.71
2019-03-18T05:18:19.060Z,97344.86
2019-03-18T05:19:24.327Z,97339.50
2019-03-18T05:20:31.723Z,97344.28
2019-03-18T05:21:35.374Z,97351.07
2019-03-18T05:22:39.228Z,97351.55
2019-03-18T05:23:42.837Z,97350.75
2019-03-18T05:24:46.681Z,97355.25
2019-03-18T05:25:50.737Z,97353.45
2019-03-18T05:26:54.359Z,97352.00
2019-03-18T05:27:57.918Z,97350.47
2019-03-18T05:29:01.614Z,97354.72
2019-03-18T05:30:11.270Z,97357.16
2019-03-18T05:31:14.931Z,97361.41
2019-03-18T05:32:18.573Z,97363.61
2019-03-18T05:33:22.209Z,97362.88
2019-03-18T05:34:25.904Z,97366.80
2019-03-18T05:35:29.553Z,97368.39
2019-03-18T05:36:33.215Z,97368.19
2019-03-18T05:37:36.841Z,97368.50
2019-03-18T05:38:40.489Z,97368.25
2019-03-18T05:39:44.081Z,97363.61
2019-03-18T05:40:50.639Z,97361.36
2019-03-18T05:41:54.296Z,97362.67
2019-03-18T05:42:58.318Z,97355.98
2019-03-18T05:44:01.955Z,97358.37
2019-03-18T05:45:10.294Z,97361.17
2019-03-18T05:46:13.925Z,97360.36
2019-03-18T05:47:17.578Z,97361.44
2019-03-18T05:48:21.132Z,97363.28
2019-03-18T05:49:24.760Z,97359.71
2019-03-18T05:50:28.428Z,97358.38
2019-03-18T05:51:32.062Z,97361.23
2019-03-18T05:52:35.707Z,97363.03
2019-03-18T05:53:39.750Z,97355.78
2019-03-18T05:54:43.467Z,97359.23
2019-03-18T05:55:49.060Z,97359.44
2019-03-18T05:56:52.692Z,97358.36
2019-03-18T05:57:56.323Z,97357.55
2019-03-18T05:59:01.293Z,97358.63
2019-03-18T06:00:10.495Z,97360.77
2019-03-18T06:01:15.422Z,97365.34
2019-03-18T06:02:22.183Z,97370.08
2019-03-18T06:03:25.770Z,97365.83
2019-03-18T06:04:29.405Z,97370.08
2019-03-18T06:05:33.038Z,97366.88
2019-03-18T06:06:36.718Z,97359.91
2019-03-18T06:07:40.409Z,97358.02
2019-03-18T06:08:44.074Z,97356.97
2019-03-18T06:09:50.321Z,97357.63
2019-03-18T06:10:54.064Z,97360.69
2019-03-18T06:11:59.208Z,97355.55
2019-03-18T06:13:03.200Z,97349.07
2019-03-18T06:14:06.839Z,97350.58
2019-03-18T06:15:12.460Z,97347.24
2019-03-18T06:16:16.202Z,97345.55
2019-03-18T06:17:20.991Z,97341.84
2019-03-18T06:18:28.075Z,97343.11
2019-03-18T06:19:32.828Z,97342.83
2019-03-18T06:20:36.576Z,97349.74
2019-03-18T06:21:41.107Z,97350.73
2019-03-18T06:22:47.765Z,97345.23
2019-03-18T06:23:53.187Z,97345.20
2019-03-18T06:24:56.902Z,97336.14
2019-03-18T06:26:00.539Z,97342.39
2019-03-18T06:27:07.396Z,97334.53
2019-03-18T06:28:11.266Z,97337.14
2019-03-18T06:29:14.975Z,97332.48
2019-03-18T06:30:18.895Z,97335.72
2019-03-18T06:31:22.533Z,97335.23
2019-03-18T06:32:26.178Z,97334.41
2019-03-18T06:33:29.836Z,97334.88
2019-03-18T06:34:33.480Z,97338.31
2019-03-18T06:35:37.038Z,97334.46
2019-03-18T06:36:40.676Z,97332.92
2019-03-18T06:37:44.308Z,97338.56
2019-03-18T06:38:47.833Z,97338.12
2019-03-18T06:39:51.489Z,97336.68
2019-03-18T06:40:55.114Z,97334.52
2019-03-18T06:41:58.740Z,97326.59
2019-03-18T06:43:02.388Z,97330.53
2019-03-18T06:44:06.161Z,97335.38
2019-03-18T06:45:11.226Z,97331.03
2019-03-18T06:46:14.853Z,97328.23
2019-03-18T06:47:18.487Z,97328.43
2019-03-18T06:48:22.122Z,97326.59
2019-03-18T06:49:25.646Z,97329.05
2019-03-18T06:50:29.289Z,97329.39
2019-03-18T06:51:33.256Z,97326.33
2019-03-18T06:52:36.895Z,97330.20
2019-03-18T06:53:41.822Z,97321.44
2019-03-18T06:54:46.061Z,97320.67
2019-03-18T06:55:49.704Z,97327.33
2019-03-18T06:56:53.935Z,97316.58
2019-03-18T06:57:59.918Z,97322.73
2019-03-18T06:59:05.251Z,97323.06
2019-03-18T07:00:15.366Z,97321.42
2019-03-18T07:01:19.137Z,97314.11
2019-03-18T07:02:22.772Z,97309.63
2019-03-18T07:03:27.646Z,97308.34
2019-03-18T07:04:31.291Z,97303.95
2019-03-18T07:05:35.309Z,97300.45
2019-03-18T07:06:42.577Z,97305.28
2019-03-18T07:07:46.227Z,97305.78
2019-03-18T07:08:49.870Z,97300.86
2019-03-18T07:09:54.575Z,97302.53
2019-03-18T07:11:00.886Z,97305.77
2019-03-18T07:12:04.580Z,97306.20
2019-03-18T07:13:08.161Z,97303.47
2019-03-18T07:14:11.797Z,97303.47
2019-03-18T07:15:15.771Z,97302.74
2019-03-18T07:16:19.950Z,97302.74
2019-03-18T07:17:23.643Z,97297.84
2019-03-18T07:18:27.224Z,97296.92
2019-03-18T07:19:30.866Z,97296.92
2019-03-18T07:20:34.442Z,97292.56
2019-03-18T07:21:38.113Z,97297.20
2019-03-18T07:22:43.404Z,97297.20
2019-03-18T07:23:47.049Z,97294.14
2019-03-18T07:24:50.689Z,97294.14
2019-03-18T07:25:54.381Z,97281.83
2019-03-18T07:26:58.110Z,97294.98
2019-03-18T07:28:01.768Z,97291.09
2019-03-18T07:29:05.398Z,97276.50
2019-03-18T07:30:14.365Z,97289.19
2019-03-18T07:31:18.083Z,97282.79
2019-03-18T07:32:21.849Z,97281.94
2019-03-18T07:33:25.483Z,97283.58
2019-03-18T07:34:29.132Z,97273.15
2019-03-18T07:35:32.768Z,97273.41
2019-03-18T07:36:36.403Z,97270.70
2019-03-18T07:37:40.130Z,97266.08
2019-03-18T07:38:43.820Z,97264.06
2019-03-18T07:39:47.553Z,97266.09
2019-03-18T07:40:51.198Z,97265.66
2019-03-18T07:41:54.835Z,97268.37
2019-03-18T07:42:58.772Z,97260.08
2019-03-18T07:44:02.419Z,97259.11
2019-03-18T07:45:09.096Z,97221.29
2019-03-18T07:46:13.107Z,97253.38
2019-03-18T07:47:16.678Z,97256.95
2019-03-18T07:48:30.288Z,97257.00
2019-03-18T07:49:27.380Z,97255.84
2019-03-18T07:50:31.019Z,97256.38
2019-03-18T07:51:34.654Z,97251.94
2019-03-18T07:52:38.363Z,97250.33
2019-03-18T07:53:42.007Z,97249.22
2019-03-18T07:54:45.519Z,97246.86
2019-03-18T07:55:49.161Z,97243.34
2019-03-18T07:56:52.791Z,97237.90
2019-03-18T07:57:56.467Z,97234.81
2019-03-18T07:59:00.213Z,97237.63
2019-03-18T08:00:05.849Z,97233.87
2019-03-18T08:01:09.493Z,97226.22
2019-03-18T08:02:13.136Z,97225.88
2019-03-18T08:03:17.267Z,97226.57
2019-03-18T08:04:22.365Z,97222.16
2019-03-18T08:05:26.002Z,97225.20
2019-03-18T08:06:29.646Z,97218.11
2019-03-18T08:07:36.009Z,97221.85
2019-03-18T08:08:40.197Z,97221.27
2019-03-18T08:09:44.131Z,97219.39
2019-03-18T08:10:47.774Z,97217.13
2019-03-18T08:11:51.418Z,97212.86
2019-03-18T08:12:55.414Z,97210.55
2019-03-18T08:13:59.083Z,97212.27
2019-03-18T08:15:02.758Z,97213.89
2019-03-18T08:16:06.384Z,97204.53
2019-03-18T08:17:10.008Z,97203.51
2019-03-18T08:18:13.724Z,97196.18
2019-03-18T08:19:17.353Z,97201.70
2019-03-18T08:20:21.265Z,97194.50
2019-03-18T08:21:24.905Z,97191.57
2019-03-18T08:22:30.187Z,97189.37
2019-03-18T08:23:33.822Z,97190.02
2019-03-18T08:24:37.451Z,97192.93
2019-03-18T08:25:41.094Z,97195.66
2019-03-18T08:26:44.731Z,97187.81
2019-03-18T08:27:48.356Z,97188.97
2019-03-18T08:28:51.992Z,97182.22
2019-03-18T08:29:55.643Z,97183.55
2019-03-18T08:30:59.429Z,97182.48
2019-03-18T08:32:03.143Z,97174.14
2019-03-18T08:33:07.085Z,97184.25
2019-03-18T08:34:10.732Z,97173.59
2019-03-18T08:35:14.711Z,97178.36
2019-03-18T08:36:18.379Z,97174.25
2019-03-18T08:37:22.655Z,97168.94
2019-03-18T08:38:26.284Z,97165.81
2019-03-18T08:39:29.856Z,97165.59
2019-03-18T08:40:33.507Z,97165.52
2019-03-18T08:41:37.156Z,97161.88
2019-03-18T08:42:40.789Z,97162.46
2019-03-18T08:43:44.418Z,97159.70
2019-03-18T08:44:48.049Z,97155.63
2019-03-18T08:45:51.762Z,97155.39
2019-03-18T08:46:55.440Z,97154.09
2019-03-18T08:48:00.514Z,97153.95
2019-03-18T08:49:04.160Z,97153.05
2019-03-18T08:50:11.896Z,97157.12
2019-03-18T08:51:14.898Z,97150.14
2019-03-18T08:52:18.565Z,97147.61
2019-03-18T08:53:33.236Z,97146.85
2019-03-18T08:54:37.110Z,97146.06
2019-03-18T08:55:41.632Z,97142.77
2019-03-18T08:56:45.271Z,97138.72
2019-03-18T08:57:49.265Z,97137.84
2019-03-18T08:58:52.906Z,97136.13
2019-03-18T08:59:56.859Z,97137.05
2019-03-18T09:01:00.500Z,97128.28
2019-03-18T09:02:04.449Z,97126.73
2019-03-18T09:03:08.125Z,97123.69
2019-03-18T09:04:11.775Z,97119.91
2019-03-18T09:05:15.469Z,97114.38
2019-03-18T09:06:19.427Z,97117.52
2019-03-18T09:07:23.142Z,97118.06
2019-03-18T09:08:26.802Z,97109.78
2019-03-18T09:09:30.435Z,97109.62
2019-03-18T09:10:34.074Z,97103.55
2019-03-18T09:11:37.726Z,97107.80
2019-03-18T09:12:41.361Z,97107.26
2019-03-18T09:13:45.040Z,97109.34
2019-03-18T09:14:48.708Z,97105.13
2019-03-18T09:15:52.264Z,97105.40
2019-03-18T09:16:55.937Z,97101.35
2019-03-18T09:17:59.871Z,97103.27
2019-03-18T09:19:08.586Z,97097.31
2019-03-18T09:20:11.781Z,97090.92
2019-03-18T09:21:15.412Z,97089.89
2019-03-18T09:22:19.107Z,97093.78
2019-03-18T09:23:22.673Z,97091.09
2019-03-18T09:24:26.309Z,97079.09
2019-03-18T09:25:29.881Z,97088.11
2019-03-18T09:26:33.515Z,97082.89
2019-03-18T09:27:37.177Z,97080.31
2019-03-18T09:28:40.819Z,97076.46
2019-03-18T09:29:44.448Z,97076.66
2019-03-18T09:30:48.083Z,97077.39
2019-03-18T09:31:51.656Z,97082.19
2019-03-18T09:32:55.323Z,97077.83
2019-03-18T09:33:58.946Z,97074.70
2019-03-18T09:35:02.574Z,97073.45
2019-03-18T09:36:06.209Z,97074.84
2019-03-18T09:37:09.843Z,97078.75
2019-03-18T09:38:13.515Z,97079.42
2019-03-18T09:39:17.231Z,97075.69
2019-03-18T09:40:20.972Z,97063.95
2019-03-18T09:41:24.589Z,97070.92
2019-03-18T09:42:28.314Z,97063.15
2019-03-18T09:43:32.299Z,97069.01
2019-03-18T09:44:35.920Z,97071.16
2019-03-18T09:45:39.589Z,97066.81
2019-03-18T09:46:43.228Z,97059.98
2019-03-18T09:47:46.862Z,97073.25
2019-03-18T09:48:50.419Z,97058.16
2019-03-18T09:49:54.102Z,97056.39
2019-03-18T09:50:57.693Z,97050.30
2019-03-18T09:52:01.326Z,97052.02
2019-03-18T09:53:04.958Z,97045.94
2019-03-18T09:54:08.587Z,97045.73
2019-03-18T09:55:12.221Z,97048.22
2019-03-18T09:56:15.878Z,97045.67
2019-03-18T09:57:25.952Z,97040.80
2019-03-18T09:58:25.220Z,97047.30
2019-03-18T09:59:30.868Z,97037.38
2019-03-18T10:00:34.508Z,97038.34
2019-03-18T10:01:38.169Z,97028.86
2019-03-18T10:02:42.537Z,97035.78
2019-03-18T10:03:46.270Z,97029.03
2019-03-18T10:04:49.963Z,97031.14
2019-03-18T10:05:55.231Z,97018.66
2019-03-18T10:06:58.899Z,97048.33
2019-03-18T10:08:02.536Z,97025.08
2019-03-18T10:09:08.048Z,97018.44
2019-03-18T10:10:13.563Z,97013.61
2019-03-18T10:11:17.260Z,97017.73
2019-03-18T10:12:20.903Z,97023.33
2019-03-18T10:13:24.542Z,97018.83
2019-03-18T10:14:28.254Z,97024.47
2019-03-18T10:15:31.802Z,97024.90
2019-03-18T10:16:35.771Z,97019.83
2019-03-18T10:17:39.444Z,97025.55
2019-03-18T10:18:43.076Z,97016.16
2019-03-18T10:19:46.773Z,97013.41
2019-03-18T10:20:50.399Z,97014.79
2019-03-18T10:21:54.033Z,97014.98
2019-03-18T10:22:57.699Z,97011.25
2019-03-18T10:24:02.928Z,97016.34
2019-03-18T10:25:08.033Z,97019.44
2019-03-18T10:26:11.658Z,97022.52
2019-03-18T10:27:15.289Z,97011.11
2019-03-18T10:28:18.949Z,97018.67
2019-03-18T10:29:22.598Z,97009.73
2019-03-18T10:30:26.221Z,97020.82
2019-03-18T10:31:29.857Z,97008.34
2019-03-18T10:32:33.486Z,97015.42
2019-03-18T10:33:37.222Z,97016.19
2019-03-18T10:34:41.219Z,97006.20
2019-03-18T10:35:44.847Z,97009.10
2019-03-18T10:36:48.463Z,97003.26
2019-03-18T10:37:52.439Z,97004.33
2019-03-18T10:38:56.095Z,97000.02
2019-03-18T10:39:59.728Z,97004.19
2019-03-18T10:41:03.721Z,97000.66
2019-03-18T10:42:07.343Z,97000.80
2019-03-18T10:43:10.980Z,97004.45
2019-03-18T10:44:14.967Z,97003.23
2019-03-18T10:45:18.610Z,97008.41
2019-03-18T10:46:22.232Z,97002.32
2019-03-18T10:47:25.863Z,96999.78
2019-03-18T10:48:29.509Z,96999.34
2019-03-18T10:49:45.223Z,97003.06
2019-03-18T10:50:38.548Z,97008.27
2019-03-18T10:51:43.534Z,96994.66
2019-03-18T10:52:48.430Z,97001.28
2019-03-18T10:53:52.051Z,96999.30
2019-03-18T10:54:55.687Z,96990.85
2019-03-18T10:56:07.606Z,96992.30
2019-03-18T10:57:05.093Z,96987.57
2019-03-18T10:58:08.806Z,97001.44
2019-03-18T10:59:12.442Z,96990.73
2019-03-18T11:00:17.203Z,96991.98
2019-03-18T11:01:20.800Z,96986.20
2019-03-18T11:02:24.444Z,96990.25
2019-03-18T11:03:28.085Z,96989.19
2019-03-18T11:04:31.723Z,96987.24
2019-03-18T11:05:35.460Z,96977.64
2019-03-18T11:06:39.087Z,96988.84
2019-03-18T11:07:42.726Z,96980.08
2019-03-18T11:08:46.371Z,96985.31
2019-03-18T11:09:49.996Z,96971.75
2019-03-18T11:10:53.958Z,96981.64
2019-03-18T11:11:57.586Z,96973.48
2019-03-18T11:13:01.217Z,96981.28
2019-03-18T11:14:04.848Z,96972.42
2019-03-18T11:15:11.574Z,96968.08
2019-03-18T11:16:15.232Z,96978.80
2019-03-18T11:17:18.868Z,96973.53
2019-03-18T11:18:22.500Z,96970.95
2019-03-18T11:19:26.469Z,96961.80
2019-03-18T11:20:30.102Z,96959.06
2019-03-18T11:21:33.800Z,96957.63
2019-03-18T11:22:37.331Z,96962.73
2019-03-18T11:23:40.970Z,96959.69
2019-03-18T11:24:44.609Z,96963.71
2019-03-18T11:25:48.246Z,96960.09
2019-03-18T11:26:51.914Z,96952.73
2019-03-18T11:27:55.558Z,96950.27
2019-03-18T11:28:59.191Z,96956.19
2019-03-18T11:30:02.899Z,96959.95
2019-03-18T11:31:06.531Z,96945.21
2019-03-18T11:32:10.314Z,96953.62
2019-03-18T11:33:13.968Z,96941.88
2019-03-18T11:34:17.600Z,96950.80
2019-03-18T11:35:21.434Z,96953.66
2019-03-18T11:36:25.066Z,96948.30
2019-03-18T11:37:28.672Z,96942.86
2019-03-18T11:38:32.285Z,96949.55
2019-03-18T11:39:35.905Z,96937.47
2019-03-18T11:40:39.534Z,96935.53
2019-03-18T11:41:43.164Z,96935.72
2019-03-18T11:42:46.909Z,96939.04
2019-03-18T11:43:51.801Z,96932.55
2019-03-18T11:44:55.447Z,96936.24
2019-03-18T11:46:00.838Z,96958.02
2019-03-18T11:47:06.091Z,96936.85
2019-03-18T11:48:09.846Z,96938.52
2019-03-18T11:49:13.553Z,96922.99
2019-03-18T11:50:19.171Z,96933.34
2019-03-18T11:51:22.838Z,96932.58
2019-03-18T11:52:26.484Z,96929.45
2019-03-18T11:53:30.162Z,96930.95
2019-03-18T11:54:33.944Z,96923.71
2019-03-18T11:55:37.586Z,96916.81
2019-03-18T11:56:41.566Z,96931.56
2019-03-18T11:57:45.234Z,96914.84
2019-03-18T11:58:49.293Z,96919.30
2019-03-18T11:59:52.952Z,96925.10
2019-03-18T12:00:56.588Z,96916.36
2019-03-18T12:02:00.220Z,96913.98
2019-03-18T12:03:04.129Z,96914.34
2019-03-18T12:04:07.726Z,96909.12
2019-03-18T12:05:13.754Z,96912.06
2019-03-18T12:06:17.437Z,96910.03
2019-03-18T12:07:21.367Z,96910.10
2019-03-18T12:08:25.000Z,96905.87
2019-03-18T12:09:28.659Z,96908.86
2019-03-18T12:10:32.294Z,96911.63
2019-03-18T12:11:35.927Z,96910.67
2019-03-18T12:12:39.569Z,96902.44
2019-03-18T12:13:43.191Z,96907.28
2019-03-18T12:14:46.852Z,96905.29
2019-03-18T12:15:50.481Z,96900.14
2019-03-18T12:16:54.029Z,96896.28
2019-03-18T12:17:57.659Z,96897.39
2019-03-18T12:19:01.291Z,96889.78
2019-03-18T12:20:07.405Z,96892.36
2019-03-18T12:21:11.039Z,96893.14
2019-03-18T12:22:14.671Z,96901.03
2019-03-18T12:23:18.230Z,96885.24
2019-03-18T12:24:21.788Z,96892.06
2019-03-18T12:25:25.460Z,96882.94
2019-03-18T12:26:29.091Z,96891.55
2019-03-18T12:27:32.723Z,96879.41
2019-03-18T12:28:36.359Z,96883.66
2019-03-18T12:29:39.992Z,96881.44
2019-03-18T12:30:44.083Z,96885.22
2019-03-18T12:31:47.722Z,96899.69